createdAt,value
2018-07-04T00:00:43.704Z,17.10
2018-07-04T00:03:23.420Z,17.10
2018-07-04T00:06:03.093Z,17.10
2018-07-04T00:08:42.969Z,17.00
2018-07-04T00:11:22.756Z,17.00
2018-07-04T00:14:02.736Z,17.00
2018-07-04T00:16:42.455Z,17.00
2018-07-04T00:19:22.095Z,17.00
2018-07-04T00:22:01.781Z,17.00
2018-07-04T00:24:41.532Z,17.10
2018-07-04T00:27:21.375Z,17.10
2018-07-04T00:30:01.169Z,17.10
2018-07-04T00:32:40.795Z,17.10
2018-07-04T00:35:20.601Z,17.10
2018-07-04T00:38:00.424Z,17.10
2018-07-04T00:40:42.751Z,17.10
2018-07-04T00:43:22.642Z,17.00
2018-07-04T00:46:02.287Z,17.00
2018-07-04T00:48:42.073Z,17.00
2018-07-04T00:51:21.998Z,16.90
2018-07-04T00:54:01.616Z,16.90
2018-07-04T00:56:41.334Z,16.90
2018-07-04T00:59:21.122Z,16.90
2018-07-04T01:02:00.974Z,16.80
2018-07-04T01:04:40.619Z,16.80
2018-07-04T01:07:20.573Z,16.80
2018-07-04T01:10:00.353Z,16.80
2018-07-04T01:12:40.250Z,16.80
2018-07-04T01:15:19.980Z,16.80
2018-07-04T01:17:59.732Z,16.70
2018-07-04T01:20:44.857Z,16.70
2018-07-04T01:23:24.536Z,16.70
2018-07-04T01:26:04.240Z,16.70
2018-07-04T01:28:50.003Z,16.70
2018-07-04T01:31:29.891Z,16.70
2018-07-04T01:34:10.193Z,16.70
2018-07-04T01:36:50.043Z,16.60
2018-07-04T01:42:15.076Z,16.60
2018-07-04T01:44:54.947Z,16.60
2018-07-04T01:47:35.111Z,16.60
2018-07-04T01:50:14.986Z,16.60
2018-07-04T01:52:55.182Z,16.50
2018-07-04T01:55:35.056Z,16.50
2018-07-04T01:58:14.692Z,16.40
2018-07-04T02:00:54.491Z,16.40
2018-07-04T02:03:34.778Z,16.30
2018-07-04T02:06:14.566Z,16.30
2018-07-04T02:08:54.451Z,16.20
2018-07-04T02:11:34.380Z,16.10
2018-07-04T02:14:15.164Z,16.10
2018-07-04T02:16:54.980Z,16.10
2018-07-04T02:19:34.638Z,16.00
2018-07-04T02:22:14.242Z,16.00
2018-07-04T02:27:27.624Z,15.90
2018-07-04T02:30:08.085Z,15.80
2018-07-04T02:32:47.828Z,15.70
2018-07-04T02:35:27.729Z,15.70
2018-07-04T02:38:07.451Z,15.70
2018-07-04T02:40:47.140Z,15.70
2018-07-04T02:43:27.064Z,15.70
2018-07-04T02:46:06.862Z,15.60
2018-07-04T02:48:46.760Z,15.60
2018-07-04T02:51:26.631Z,15.50
2018-07-04T02:54:06.395Z,15.50
2018-07-04T02:56:45.982Z,15.50
2018-07-04T02:59:25.576Z,15.40
2018-07-04T03:02:06.244Z,15.40
2018-07-04T03:04:45.877Z,15.30
2018-07-04T03:07:25.630Z,15.30
2018-07-04T03:10:05.458Z,15.30
2018-07-04T03:12:45.378Z,15.30
2018-07-04T03:15:25.143Z,15.30
2018-07-04T03:18:04.863Z,15.30
2018-07-04T03:20:46.266Z,15.30
2018-07-04T03:23:26.815Z,15.30
2018-07-04T03:26:06.408Z,15.30
2018-07-04T03:28:45.927Z,15.20
2018-07-04T03:31:25.519Z,15.20
2018-07-04T03:34:05.124Z,15.20
2018-07-04T03:36:44.886Z,15.20
2018-07-04T03:39:25.353Z,15.30
2018-07-04T03:42:05.176Z,15.30
2018-07-04T03:47:30.063Z,15.20
2018-07-04T03:50:12.078Z,15.20
2018-07-04T03:52:51.626Z,15.30
2018-07-04T03:55:31.449Z,15.30
2018-07-04T03:58:11.310Z,15.30
2018-07-04T04:00:52.189Z,15.30
2018-07-04T04:03:32.050Z,15.30
2018-07-04T04:06:12.098Z,15.40
2018-07-04T04:08:51.935Z,15.40
2018-07-04T04:11:31.638Z,15.50
2018-07-04T04:14:11.232Z,15.50
2018-07-04T04:16:50.881Z,15.50
2018-07-04T04:19:33.669Z,15.60
2018-07-04T04:22:14.730Z,15.60
2018-07-04T04:24:54.627Z,15.60
2018-07-04T04:27:34.590Z,15.70
2018-07-04T04:30:14.354Z,15.80
2018-07-04T04:32:54.451Z,15.80
2018-07-04T04:35:34.361Z,15.80
2018-07-04T04:38:14.244Z,15.90
2018-07-04T04:40:53.942Z,15.90
2018-07-04T04:43:33.687Z,15.90
2018-07-04T04:46:13.464Z,16.00
2018-07-04T04:48:53.375Z,16.00
2018-07-04T04:51:33.180Z,16.10
2018-07-04T04:54:13.193Z,16.10
2018-07-04T04:56:52.790Z,16.10
2018-07-04T04:59:33.611Z,16.20
2018-07-04T05:02:13.363Z,16.20
2018-07-04T05:04:53.259Z,16.30
2018-07-04T05:07:33.097Z,16.30
2018-07-04T05:10:12.787Z,16.30
2018-07-04T05:12:52.679Z,16.40
2018-07-04T05:15:32.652Z,16.40
2018-07-04T05:18:12.362Z,16.50
2018-07-04T05:20:52.204Z,16.60
2018-07-04T05:23:32.060Z,16.70
2018-07-04T05:26:11.988Z,16.80
2018-07-04T05:28:51.810Z,16.90
2018-07-04T05:31:31.754Z,17.00
2018-07-04T05:34:11.752Z,17.10
2018-07-04T05:36:51.670Z,17.20
2018-07-04T05:39:31.402Z,17.30
2018-07-04T05:42:11.183Z,17.40
2018-07-04T05:44:51.089Z,17.50
2018-07-04T05:47:30.799Z,17.50
2018-07-04T05:55:20.852Z,17.70
2018-07-04T05:58:00.515Z,17.80
2018-07-04T06:00:40.398Z,17.90
2018-07-04T06:03:20.389Z,18.00
2018-07-04T06:06:00.116Z,18.00
2018-07-04T06:08:39.831Z,18.10
2018-07-04T06:11:19.659Z,18.20
2018-07-04T06:13:59.569Z,18.30
2018-07-04T06:16:39.451Z,18.40
2018-07-04T06:19:19.162Z,18.50
2018-07-04T06:21:58.891Z,18.60
2018-07-04T06:24:38.713Z,18.70
2018-07-04T06:27:18.339Z,18.80
2018-07-04T06:29:59.384Z,19.00
2018-07-04T06:32:40.463Z,19.10
2018-07-04T06:35:20.226Z,19.30
2018-07-04T06:37:47.698Z,19.40
2018-07-04T06:40:15.055Z,19.50
2018-07-04T06:42:42.523Z,19.70
2018-07-04T06:45:09.969Z,19.80
2018-07-04T06:47:37.442Z,20.00
2018-07-04T06:50:04.959Z,20.10
2018-07-04T06:52:32.456Z,20.30
2018-07-04T06:54:59.923Z,20.40
2018-07-04T06:57:27.375Z,20.60
2018-07-04T06:59:54.811Z,20.70
2018-07-04T07:02:22.322Z,20.80
2018-07-04T07:05:03.180Z,20.90
2018-07-04T07:07:43.035Z,20.90
2018-07-04T07:10:22.900Z,21.00
2018-07-04T07:13:03.115Z,21.00
2018-07-04T07:15:42.985Z,21.10
2018-07-04T07:18:22.855Z,21.20
2018-07-04T07:21:02.737Z,21.40
2018-07-04T07:23:42.475Z,21.50
2018-07-04T07:26:22.227Z,21.70
2018-07-04T07:29:02.134Z,21.90
2018-07-04T07:31:41.831Z,22.10
2018-07-04T07:34:21.819Z,22.30
2018-07-04T07:37:01.342Z,22.60
2018-07-04T07:39:41.353Z,22.80
2018-07-04T07:42:21.179Z,23.00
2018-07-04T07:45:01.047Z,23.10
2018-07-04T07:47:40.769Z,23.40
2018-07-04T07:50:20.459Z,23.50
2018-07-04T07:53:00.293Z,23.70
2018-07-04T07:55:40.021Z,23.90
2018-07-04T07:58:19.981Z,24.10
2018-07-04T08:00:59.874Z,24.30
2018-07-04T08:03:39.847Z,24.50
2018-07-04T08:06:19.690Z,24.60
2018-07-04T08:08:59.470Z,24.80
2018-07-04T08:11:39.266Z,25.00
2018-07-04T08:14:18.914Z,25.20
2018-07-04T08:17:01.935Z,25.40
2018-07-04T08:19:41.758Z,25.70
2018-07-04T08:22:21.492Z,25.80
2018-07-04T08:25:01.455Z,26.10
2018-07-04T08:27:41.460Z,26.20
2018-07-04T08:30:21.151Z,26.40
2018-07-04T08:33:01.404Z,26.50
2018-07-04T08:35:41.433Z,26.60
2018-07-04T08:38:21.311Z,26.70
2018-07-04T08:41:01.249Z,27.00
2018-07-04T08:43:41.100Z,27.10
2018-07-04T08:46:21.191Z,27.40
2018-07-04T08:49:01.054Z,27.40
2018-07-04T08:51:40.939Z,27.50
2018-07-04T08:54:20.837Z,27.70
2018-07-04T08:59:34.519Z,28.00
2018-07-04T09:02:14.397Z,28.20
2018-07-04T09:04:54.351Z,28.50
2018-07-04T09:07:34.408Z,28.60
2018-07-04T09:10:14.187Z,28.50
2018-07-04T09:12:54.005Z,28.70
2018-07-04T09:15:34.600Z,28.90
2018-07-04T09:18:14.617Z,28.80
2018-07-04T09:20:54.328Z,28.80
2018-07-04T09:23:34.585Z,28.80
2018-07-04T09:26:14.371Z,28.90
2018-07-04T09:28:54.130Z,28.80
2018-07-04T09:31:34.130Z,28.90
2018-07-04T09:34:14.035Z,29.00
2018-07-04T09:36:53.977Z,29.10
2018-07-04T09:39:33.773Z,29.30
2018-07-04T09:42:13.587Z,29.30
2018-07-04T09:44:53.296Z,29.70
2018-07-04T09:47:33.035Z,30.00
2018-07-04T09:50:13.019Z,30.30
2018-07-04T09:52:52.833Z,30.40
2018-07-04T09:55:32.651Z,30.20
2018-07-04T09:58:12.303Z,30.30
2018-07-04T10:00:59.576Z,30.40
2018-07-04T10:03:39.188Z,30.50
2018-07-04T10:06:19.011Z,30.50
2018-07-04T10:08:58.707Z,30.50
2018-07-04T10:11:38.557Z,30.40
2018-07-04T10:14:18.268Z,30.50
2018-07-04T10:16:58.040Z,30.60
2018-07-04T10:19:37.978Z,30.50
2018-07-04T10:22:17.960Z,30.70
2018-07-04T10:24:57.793Z,30.90
2018-07-04T10:27:37.695Z,30.90
2018-07-04T10:30:20.017Z,30.90
2018-07-04T10:32:59.647Z,31.00
2018-07-04T10:35:39.360Z,31.10
2018-07-04T10:38:19.541Z,31.30
2018-07-04T10:43:45.133Z,31.20
2018-07-04T10:46:25.219Z,31.30
2018-07-04T10:49:06.077Z,31.40
2018-07-04T10:51:45.732Z,31.30
2018-07-04T10:54:25.631Z,30.80
2018-07-04T10:57:06.574Z,30.80
2018-07-04T10:59:46.519Z,30.80
2018-07-04T11:02:26.343Z,30.90
2018-07-04T11:05:06.155Z,31.20
2018-07-04T11:07:45.905Z,31.40
2018-07-04T11:10:25.882Z,31.50
2018-07-04T11:13:05.480Z,31.30
2018-07-04T11:15:45.243Z,31.20
2018-07-04T11:18:25.124Z,31.10
2018-07-04T11:21:04.925Z,30.90
2018-07-04T11:23:45.152Z,31.10
2018-07-04T11:26:25.243Z,31.40
2018-07-04T11:29:05.102Z,31.40
2018-07-04T11:31:44.992Z,31.60
2018-07-04T11:34:24.696Z,31.50
2018-07-04T11:37:04.411Z,31.50
2018-07-04T11:39:46.196Z,31.40
2018-07-04T11:42:25.746Z,31.10
2018-07-04T11:45:05.335Z,31.10
2018-07-04T11:47:32.710Z,31.00
2018-07-04T11:50:00.070Z,31.10
2018-07-04T11:52:27.418Z,31.30
2018-07-04T11:54:54.794Z,31.20
2018-07-04T11:57:22.134Z,31.30
2018-07-04T11:59:49.524Z,31.50
2018-07-04T12:02:16.862Z,31.80
2018-07-04T12:04:56.560Z,32.00
2018-07-04T12:07:23.909Z,32.10
2018-07-04T12:09:51.402Z,32.20
2018-07-04T12:12:18.748Z,32.40
2018-07-04T12:14:46.112Z,32.60
2018-07-04T12:17:13.900Z,32.70
2018-07-04T12:19:41.497Z,32.70
2018-07-04T12:22:08.838Z,32.80
2018-07-04T12:24:36.202Z,32.90
2018-07-04T12:27:03.614Z,32.80
2018-07-04T12:29:30.943Z,32.60
2018-07-04T12:31:58.370Z,32.50
2018-07-04T12:34:25.688Z,31.90
2018-07-04T12:36:53.055Z,31.70
2018-07-04T12:39:20.396Z,31.50
2018-07-04T12:41:47.832Z,31.10
2018-07-04T12:44:15.150Z,31.10
2018-07-04T12:46:42.529Z,31.20
2018-07-04T12:49:09.886Z,31.30
2018-07-04T12:51:37.273Z,31.20
2018-07-04T12:54:10.032Z,30.90
2018-07-04T12:56:49.434Z,30.80
2018-07-04T12:59:29.216Z,30.80
2018-07-04T13:02:08.940Z,30.90
2018-07-04T13:04:48.613Z,30.60
2018-07-04T13:07:28.321Z,30.50
2018-07-04T13:10:07.960Z,30.60
2018-07-04T13:12:48.082Z,30.50
2018-07-04T13:15:27.716Z,30.60
2018-07-04T13:18:07.498Z,30.60
2018-07-04T13:20:47.236Z,30.70
2018-07-04T13:23:26.944Z,30.70
2018-07-04T13:26:06.564Z,30.80
2018-07-04T13:28:46.126Z,30.60
2018-07-04T13:31:25.933Z,30.70
2018-07-04T13:34:05.940Z,30.60
2018-07-04T13:36:45.719Z,30.70
2018-07-04T13:42:11.855Z,30.60
2018-07-04T13:44:51.475Z,30.80
2018-07-04T13:47:31.111Z,30.80
2018-07-04T13:50:10.818Z,30.80
2018-07-04T13:52:50.562Z,30.80
2018-07-04T13:55:30.392Z,30.70
2018-07-04T13:58:10.080Z,30.70
2018-07-04T14:00:49.702Z,30.70
2018-07-04T14:03:29.227Z,30.60
2018-07-04T14:06:09.029Z,30.60
2018-07-04T14:08:48.562Z,30.50
2018-07-04T14:11:28.218Z,30.50
2018-07-04T14:14:07.823Z,30.50
2018-07-04T14:16:47.482Z,30.60
2018-07-04T14:19:27.094Z,30.70
2018-07-04T14:22:06.754Z,30.70
2018-07-04T14:24:46.595Z,30.70
2018-07-04T14:27:26.248Z,30.60
2018-07-04T14:30:05.815Z,30.60
2018-07-04T14:32:45.424Z,30.50
2018-07-04T14:35:25.144Z,30.60
2018-07-04T14:38:04.756Z,30.50
2018-07-04T14:40:45.538Z,30.40
2018-07-04T14:43:25.096Z,30.40
2018-07-04T14:46:04.669Z,30.30
2018-07-04T14:48:44.262Z,30.30
2018-07-04T14:51:23.956Z,30.30
2018-07-04T14:54:04.252Z,30.30
2018-07-04T14:56:43.958Z,30.30
2018-07-04T14:59:23.686Z,30.10
2018-07-04T15:02:03.534Z,30.00
2018-07-04T15:04:43.412Z,29.90
2018-07-04T15:07:24.556Z,29.70
2018-07-04T15:10:05.511Z,29.70
2018-07-04T15:12:45.186Z,29.60
2018-07-04T15:17:58.775Z,29.30
2018-07-04T15:20:38.631Z,29.30
2018-07-04T15:23:18.452Z,29.20
2018-07-04T15:25:58.039Z,29.10
2018-07-04T15:28:37.696Z,29.10
2018-07-04T15:31:17.510Z,29.00
2018-07-04T15:33:57.312Z,29.00
2018-07-04T15:36:37.239Z,28.90
2018-07-04T15:39:17.841Z,28.90
2018-07-04T15:41:57.580Z,28.80
2018-07-04T15:44:37.705Z,28.80
2018-07-04T15:47:17.457Z,28.70
2018-07-04T15:49:57.045Z,28.70
2018-07-04T15:52:36.702Z,28.70
2018-07-04T15:55:16.608Z,28.70
2018-07-04T15:57:56.365Z,28.70
2018-07-04T16:00:36.487Z,28.60
2018-07-04T16:03:16.138Z,28.60
2018-07-04T16:05:55.904Z,28.60
2018-07-04T16:08:35.652Z,28.60
2018-07-04T16:11:15.392Z,28.60
2018-07-04T16:13:55.146Z,28.50
2018-07-04T16:16:34.904Z,28.50
2018-07-04T16:19:14.532Z,28.50
2018-07-04T16:21:54.122Z,28.40
2018-07-04T16:24:33.996Z,28.50
2018-07-04T16:27:13.681Z,28.50
2018-07-04T16:29:53.527Z,28.40
2018-07-04T16:32:33.064Z,28.30
2018-07-04T16:35:12.790Z,28.30
2018-07-04T16:37:52.615Z,28.20
2018-07-04T16:40:32.678Z,28.20
2018-07-04T16:43:12.475Z,28.10
2018-07-04T16:45:52.535Z,28.10
2018-07-04T16:48:32.318Z,28.10
2018-07-04T16:51:12.198Z,28.00
2018-07-04T16:53:52.015Z,28.00
2018-07-04T16:56:31.929Z,27.90
2018-07-04T16:59:11.890Z,27.90
2018-07-04T17:01:51.769Z,27.90
2018-07-04T17:04:31.639Z,27.80
2018-07-04T17:07:11.311Z,27.70
2018-07-04T17:09:51.146Z,27.70
2018-07-04T17:12:30.961Z,27.60
2018-07-04T17:15:10.770Z,27.60
2018-07-04T17:17:50.507Z,27.50
2018-07-04T17:20:30.949Z,27.40
2018-07-04T17:23:10.750Z,27.40
2018-07-04T17:25:50.334Z,27.30
2018-07-04T17:28:30.109Z,27.20
2018-07-04T17:31:09.810Z,27.20
2018-07-04T17:36:23.093Z,27.00
2018-07-04T17:39:02.851Z,26.90
2018-07-04T17:41:42.502Z,26.90
2018-07-04T17:44:22.074Z,26.80
2018-07-04T17:47:01.939Z,26.80
2018-07-04T17:49:41.626Z,26.70
2018-07-04T17:52:21.829Z,26.60
2018-07-04T17:55:01.531Z,26.60
2018-07-04T17:57:41.419Z,26.50
2018-07-04T18:00:21.115Z,26.40
2018-07-04T18:03:00.744Z,26.30
2018-07-04T18:05:40.512Z,26.20
2018-07-04T18:08:20.070Z,26.10
2018-07-04T18:10:59.868Z,26.00
2018-07-04T18:13:39.730Z,25.90
2018-07-04T18:16:19.629Z,25.80
2018-07-04T18:18:59.248Z,25.70
2018-07-04T18:21:39.121Z,25.60
2018-07-04T18:24:18.758Z,25.60
2018-07-04T18:26:58.420Z,25.50
2018-07-04T18:29:38.157Z,25.40
2018-07-04T18:32:17.915Z,25.40
2018-07-04T18:34:57.604Z,25.30
2018-07-04T18:37:38.334Z,25.20
2018-07-04T18:40:18.046Z,25.10
2018-07-04T18:42:57.908Z,25.00
2018-07-04T18:45:37.788Z,24.90
2018-07-04T18:48:17.566Z,24.90
2018-07-04T18:50:57.251Z,24.80
2018-07-04T18:53:37.056Z,24.60
2018-07-04T18:56:16.732Z,24.60
2018-07-04T18:58:56.354Z,24.50
2018-07-04T19:01:36.086Z,24.40
2018-07-04T19:04:15.804Z,24.30
2018-07-04T19:06:55.535Z,24.20
2018-07-04T19:09:38.912Z,24.10
2018-07-04T19:12:18.674Z,24.00
2018-07-04T19:14:58.418Z,23.90
2018-07-04T19:17:38.252Z,23.80
2018-07-04T19:20:17.918Z,23.60
2018-07-04T19:22:57.460Z,23.50
2018-07-04T19:25:37.291Z,23.50
2018-07-04T19:28:16.969Z,23.30
2018-07-04T19:30:56.862Z,23.30
2018-07-04T19:33:36.578Z,23.20
2018-07-04T19:36:16.262Z,23.10
2018-07-04T19:38:56.156Z,22.90
2018-07-04T19:44:09.497Z,22.70
2018-07-04T19:46:49.206Z,22.60
2018-07-04T19:49:28.895Z,22.50
2018-07-04T19:52:08.554Z,22.50
2018-07-04T19:54:48.316Z,22.40
2018-07-04T19:57:28.006Z,22.40
2018-07-04T20:00:07.826Z,22.30
2018-07-04T20:02:47.624Z,22.20
2018-07-04T20:05:27.310Z,22.20
2018-07-04T20:08:06.880Z,22.10
2018-07-04T20:10:46.468Z,22.10
2018-07-04T20:13:26.762Z,22.00
2018-07-04T20:16:06.422Z,22.00
2018-07-04T20:18:46.265Z,22.00
2018-07-04T20:21:25.931Z,21.90
2018-07-04T20:24:05.708Z,21.90
2018-07-04T20:26:45.610Z,21.80
2018-07-04T20:29:25.196Z,21.80
2018-07-04T20:32:04.867Z,21.70
2018-07-04T20:34:44.572Z,21.60
2018-07-04T20:37:24.208Z,21.60
2018-07-04T20:40:03.910Z,21.50
2018-07-04T20:42:43.550Z,21.50
2018-07-04T20:45:23.336Z,21.50
2018-07-04T20:48:03.123Z,21.50
2018-07-04T20:50:42.883Z,21.40
2018-07-04T20:53:22.534Z,21.40
2018-07-04T20:56:02.198Z,21.40
2018-07-04T20:58:41.823Z,21.40
2018-07-04T21:01:21.560Z,21.40
2018-07-04T21:04:01.350Z,21.40
2018-07-04T21:06:41.044Z,21.50
2018-07-04T21:09:20.844Z,21.60
2018-07-04T21:12:00.479Z,21.50
2018-07-04T21:14:40.166Z,21.60
2018-07-04T21:17:20.016Z,21.60
2018-07-04T21:19:59.688Z,21.60
2018-07-04T21:22:39.430Z,21.60
2018-07-04T21:25:19.119Z,21.60
2018-07-04T21:27:58.755Z,21.60
2018-07-04T21:30:38.523Z,21.60
2018-07-04T21:33:18.081Z,21.50
2018-07-04T21:35:57.693Z,21.50
2018-07-04T21:38:37.343Z,21.50
2018-07-04T21:41:16.949Z,21.40
2018-07-04T21:43:56.523Z,21.40
2018-07-04T21:46:36.330Z,21.40
2018-07-04T21:49:15.903Z,21.40
2018-07-04T21:51:55.483Z,21.30
2018-07-04T21:54:35.551Z,21.30
2018-07-04T21:57:18.293Z,21.30
2018-07-04T21:59:58.111Z,21.30
2018-07-04T22:02:38.053Z,21.20
2018-07-04T22:05:17.855Z,21.20
2018-07-04T22:07:57.441Z,21.20
2018-07-04T22:10:37.364Z,21.10
2018-07-04T22:13:17.133Z,21.10
2018-07-04T22:15:56.732Z,21.10
2018-07-04T22:18:36.223Z,21.10
2018-07-04T22:21:16.013Z,21.00
2018-07-04T22:23:55.812Z,21.00
2018-07-04T22:26:35.601Z,21.00
2018-07-04T22:29:15.359Z,20.90
2018-07-04T22:34:28.918Z,20.80
2018-07-04T22:39:43.219Z,20.70
2018-07-04T22:42:22.981Z,20.70
2018-07-04T22:45:02.505Z,20.70
2018-07-04T22:47:42.111Z,20.70
2018-07-04T22:50:22.243Z,20.70
2018-07-04T22:53:02.114Z,20.70
2018-07-04T22:55:41.993Z,20.70
2018-07-04T22:58:21.655Z,20.60
2018-07-04T23:01:01.422Z,20.60
2018-07-04T23:03:41.003Z,20.60
2018-07-04T23:06:20.716Z,20.50
2018-07-04T23:09:00.390Z,20.50
2018-07-04T23:11:40.193Z,20.50
2018-07-04T23:14:19.882Z,20.50
2018-07-04T23:16:59.552Z,20.40
2018-07-04T23:19:39.124Z,20.40
2018-07-04T23:22:18.817Z,20.40
2018-07-04T23:24:58.647Z,20.30
2018-07-04T23:27:38.790Z,20.30
2018-07-04T23:30:19.035Z,20.20
2018-07-04T23:32:58.889Z,20.10
2018-07-04T23:35:38.708Z,20.10
2018-07-04T23:38:18.271Z,20.10
2018-07-04T23:40:58.043Z,20.00
2018-07-04T23:43:39.519Z,20.00
2018-07-04T23:46:19.276Z,19.90
2018-07-04T23:48:59.031Z,19.80
2018-07-04T23:51:38.809Z,19.80
2018-07-04T23:54:18.544Z,19.70
2018-07-04T23:56:58.192Z,19.70
2018-07-04T23:59:37.890Z,19.60
